Terminal Aerodrome Forecast
Issued by NWS

Home | Current Version | Previous Version | Text Only | Print | Product List | Glossary On
Versions: 1 2 3 4 5 6 7 8 9 10 11 12 13 14 15 16 17 18 19 20 21 22 23 24
000
FTUS43 KDLH 152323
TAFHIB
TAF
KHIB 152323Z 1600/1624 13008KT P6SM OVC080
     FM160200 12006KT P6SM -RA OVC070
     FM160800 09005KT P6SM VCSH OVC060
     FM161400 12006KT P6SM VCSH OVC040
     FM161800 12006KT P6SM BKN040=

USA.gov is the U.S. government's official web portal to all federal, state and local government web resources and services.